sensor_id;sensor_type;location;lat;lon;timestamp;P1;durP1;ratioP1;P2;durP2;ratioP2
12840;SDS011;6487;48.626;12.486;2023-06-05T00:00:21;4.90;;;4.40;;
12840;SDS011;6487;48.626;12.486;2023-06-05T00:02:49;4.60;;;4.20;;
12840;SDS011;6487;48.626;12.486;2023-06-05T00:05:18;6.63;;;4.27;;
12840;SDS011;6487;48.626;12.486;2023-06-05T00:07:48;4.67;;;3.63;;
12840;SDS011;6487;48.626;12.486;2023-06-05T00:10:17;5.23;;;4.57;;
12840;SDS011;6487;48.626;12.486;2023-06-05T00:12:46;6.00;;;4.10;;
12840;SDS011;6487;48.626;12.486;2023-06-05T00:15:14;5.30;;;4.10;;
12840;SDS011;6487;48.626;12.486;2023-06-05T00:17:43;4.47;;;4.07;;
12840;SDS011;6487;48.626;12.486;2023-06-05T00:20:12;4.47;;;4.03;;
12840;SDS011;6487;48.626;12.486;2023-06-05T00:22:41;4.40;;;4.00;;
12840;SDS011;6487;48.626;12.486;2023-06-05T00:25:12;5.13;;;4.20;;
12840;SDS011;6487;48.626;12.486;2023-06-05T00:27:40;4.73;;;4.30;;
12840;SDS011;6487;48.626;12.486;2023-06-05T00:30:12;5.13;;;4.30;;
12840;SDS011;6487;48.626;12.486;2023-06-05T00:32:41;5.07;;;4.50;;
12840;SDS011;6487;48.626;12.486;2023-06-05T00:35:09;5.53;;;4.20;;
12840;SDS011;6487;48.626;12.486;2023-06-05T00:37:38;5.10;;;4.30;;
12840;SDS011;6487;48.626;12.486;2023-06-05T00:40:07;5.50;;;4.60;;
12840;SDS011;6487;48.626;12.486;2023-06-05T00:42:37;7.40;;;4.97;;
12840;SDS011;6487;48.626;12.486;2023-06-05T00:45:06;4.37;;;3.97;;
12840;SDS011;6487;48.626;12.486;2023-06-05T00:47:35;7.67;;;4.40;;
12840;SDS011;6487;48.626;12.486;2023-06-05T00:50:04;7.10;;;4.33;;
12840;SDS011;6487;48.626;12.486;2023-06-05T00:52:35;5.33;;;4.20;;
12840;SDS011;6487;48.626;12.486;2023-06-05T00:55:04;4.73;;;4.33;;
12840;SDS011;6487;48.626;12.486;2023-06-05T00:57:34;4.07;;;3.77;;
12840;SDS011;6487;48.626;12.486;2023-06-05T01:00:08;4.77;;;4.27;;
12840;SDS011;6487;48.626;12.486;2023-06-05T01:02:39;5.53;;;4.13;;
12840;SDS011;6487;48.626;12.486;2023-06-05T01:05:08;5.00;;;4.60;;
12840;SDS011;6487;48.626;12.486;2023-06-05T01:07:37;4.70;;;4.30;;
12840;SDS011;6487;48.626;12.486;2023-06-05T01:12:46;6.60;;;4.77;;
12840;SDS011;6487;48.626;12.486;2023-06-05T01:15:23;4.80;;;4.27;;
12840;SDS011;6487;48.626;12.486;2023-06-05T01:17:56;5.30;;;4.37;;
12840;SDS011;6487;48.626;12.486;2023-06-05T01:20:31;4.60;;;4.20;;
12840;SDS011;6487;48.626;12.486;2023-06-05T01:23:04;3.90;;;3.60;;
12840;SDS011;6487;48.626;12.486;2023-06-05T01:25:33;6.77;;;4.57;;
12840;SDS011;6487;48.626;12.486;2023-06-05T01:28:06;5.27;;;4.60;;
12840;SDS011;6487;48.626;12.486;2023-06-05T01:30:40;5.17;;;4.77;;
12840;SDS011;6487;48.626;12.486;2023-06-05T01:33:22;5.17;;;4.20;;
12840;SDS011;6487;48.626;12.486;2023-06-05T01:36:00;4.40;;;4.00;;
12840;SDS011;6487;48.626;12.486;2023-06-05T01:38:33;4.83;;;4.33;;
12840;SDS011;6487;48.626;12.486;2023-06-05T01:41:03;4.70;;;4.30;;
12840;SDS011;6487;48.626;12.486;2023-06-05T01:43:32;5.10;;;4.70;;
12840;SDS011;6487;48.626;12.486;2023-06-05T01:46:02;4.80;;;4.40;;
12840;SDS011;6487;48.626;12.486;2023-06-05T01:48:33;4.77;;;4.37;;
12840;SDS011;6487;48.626;12.486;2023-06-05T01:51:08;4.90;;;4.50;;
12840;SDS011;6487;48.626;12.486;2023-06-05T01:53:42;4.83;;;4.37;;
12840;SDS011;6487;48.626;12.486;2023-06-05T01:56:15;5.10;;;4.37;;
12840;SDS011;6487;48.626;12.486;2023-06-05T01:58:46;5.33;;;4.90;;
12840;SDS011;6487;48.626;12.486;2023-06-05T02:01:15;6.57;;;4.90;;
12840;SDS011;6487;48.626;12.486;2023-06-05T02:03:45;6.20;;;5.03;;
12840;SDS011;6487;48.626;12.486;2023-06-05T02:06:14;5.53;;;4.93;;
12840;SDS011;6487;48.626;12.486;2023-06-05T02:08:44;6.40;;;4.90;;
12840;SDS011;6487;48.626;12.486;2023-06-05T02:11:13;5.50;;;4.50;;
12840;SDS011;6487;48.626;12.486;2023-06-05T02:13:41;4.87;;;4.47;;
12840;SDS011;6487;48.626;12.486;2023-06-05T02:16:16;5.40;;;4.83;;
12840;SDS011;6487;48.626;12.486;2023-06-05T02:18:47;6.17;;;5.00;;
12840;SDS011;6487;48.626;12.486;2023-06-05T02:21:15;6.97;;;5.00;;
12840;SDS011;6487;48.626;12.486;2023-06-05T02:23:45;5.20;;;4.70;;
12840;SDS011;6487;48.626;12.486;2023-06-05T02:26:13;6.10;;;5.00;;
12840;SDS011;6487;48.626;12.486;2023-06-05T02:28:43;5.60;;;5.03;;
12840;SDS011;6487;48.626;12.486;2023-06-05T02:31:11;5.80;;;5.20;;
12840;SDS011;6487;48.626;12.486;2023-06-05T02:33:44;6.43;;;5.77;;
12840;SDS011;6487;48.626;12.486;2023-06-05T02:36:12;5.80;;;5.30;;
12840;SDS011;6487;48.626;12.486;2023-06-05T02:38:42;5.50;;;5.00;;
12840;SDS011;6487;48.626;12.486;2023-06-05T02:41:12;6.33;;;5.50;;
12840;SDS011;6487;48.626;12.486;2023-06-05T02:43:40;6.03;;;5.53;;
12840;SDS011;6487;48.626;12.486;2023-06-05T02:46:08;6.57;;;5.53;;
12840;SDS011;6487;48.626;12.486;2023-06-05T02:48:37;6.07;;;5.57;;
12840;SDS011;6487;48.626;12.486;2023-06-05T02:51:06;6.60;;;6.00;;
12840;SDS011;6487;48.626;12.486;2023-06-05T02:53:36;6.53;;;5.93;;
12840;SDS011;6487;48.626;12.486;2023-06-05T02:56:04;5.60;;;5.13;;
12840;SDS011;6487;48.626;12.486;2023-06-05T02:58:34;6.07;;;5.23;;
12840;SDS011;6487;48.626;12.486;2023-06-05T03:01:03;6.33;;;5.73;;
12840;SDS011;6487;48.626;12.486;2023-06-05T03:03:35;6.57;;;5.97;;
12840;SDS011;6487;48.626;12.486;2023-06-05T03:06:04;7.53;;;6.00;;
12840;SDS011;6487;48.626;12.486;2023-06-05T03:08:33;5.83;;;5.33;;
12840;SDS011;6487;48.626;12.486;2023-06-05T03:11:03;5.93;;;5.43;;
12840;SDS011;6487;48.626;12.486;2023-06-05T03:13:33;9.23;;;5.97;;
12840;SDS011;6487;48.626;12.486;2023-06-05T03:16:02;6.17;;;5.57;;
12840;SDS011;6487;48.626;12.486;2023-06-05T03:18:31;6.20;;;5.50;;
12840;SDS011;6487;48.626;12.486;2023-06-05T03:20:59;6.73;;;5.40;;
12840;SDS011;6487;48.626;12.486;2023-06-05T03:23:27;7.03;;;6.10;;
12840;SDS011;6487;48.626;12.486;2023-06-05T03:25:56;7.73;;;5.83;;
12840;SDS011;6487;48.626;12.486;2023-06-05T03:28:25;5.97;;;5.47;;
12840;SDS011;6487;48.626;12.486;2023-06-05T03:30:55;7.53;;;5.53;;
12840;SDS011;6487;48.626;12.486;2023-06-05T03:33:23;6.00;;;5.43;;
12840;SDS011;6487;48.626;12.486;2023-06-05T03:35:51;5.73;;;5.27;;
12840;SDS011;6487;48.626;12.486;2023-06-05T03:38:22;5.50;;;5.00;;
12840;SDS011;6487;48.626;12.486;2023-06-05T03:40:50;5.80;;;5.30;;
12840;SDS011;6487;48.626;12.486;2023-06-05T03:43:18;6.00;;;5.40;;
12840;SDS011;6487;48.626;12.486;2023-06-05T03:45:47;5.63;;;5.13;;
12840;SDS011;6487;48.626;12.486;2023-06-05T03:48:17;6.30;;;5.70;;
12840;SDS011;6487;48.626;12.486;2023-06-05T03:50:46;6.73;;;5.70;;
12840;SDS011;6487;48.626;12.486;2023-06-05T03:53:17;5.83;;;5.30;;
12840;SDS011;6487;48.626;12.486;2023-06-05T03:55:46;7.03;;;5.63;;
12840;SDS011;6487;48.626;12.486;2023-06-05T03:58:15;5.97;;;5.37;;
12840;SDS011;6487;48.626;12.486;2023-06-05T04:00:44;7.43;;;5.70;;
12840;SDS011;6487;48.626;12.486;2023-06-05T04:03:15;6.13;;;5.60;;
12840;SDS011;6487;48.626;12.486;2023-06-05T04:05:46;5.57;;;5.07;;
12840;SDS011;6487;48.626;12.486;2023-06-05T04:08:20;6.37;;;5.30;;
12840;SDS011;6487;48.626;12.486;2023-06-05T04:10:49;7.30;;;5.57;;
12840;SDS011;6487;48.626;12.486;2023-06-05T04:13:17;6.60;;;5.50;;
12840;SDS011;6487;48.626;12.486;2023-06-05T04:15:48;5.20;;;4.80;;
12840;SDS011;6487;48.626;12.486;2023-06-05T04:18:16;6.93;;;6.13;;
12840;SDS011;6487;48.626;12.486;2023-06-05T04:20:46;8.33;;;5.47;;
12840;SDS011;6487;48.626;12.486;2023-06-05T04:23:14;6.33;;;5.60;;
12840;SDS011;6487;48.626;12.486;2023-06-05T04:25:43;7.20;;;5.63;;
12840;SDS011;6487;48.626;12.486;2023-06-05T04:28:12;7.00;;;5.73;;
12840;SDS011;6487;48.626;12.486;2023-06-05T04:30:41;7.13;;;5.70;;
12840;SDS011;6487;48.626;12.486;2023-06-05T04:33:12;6.03;;;5.40;;
12840;SDS011;6487;48.626;12.486;2023-06-05T04:35:41;6.17;;;5.63;;
12840;SDS011;6487;48.626;12.486;2023-06-05T04:38:11;7.20;;;6.20;;
12840;SDS011;6487;48.626;12.486;2023-06-05T04:40:39;8.17;;;5.70;;
12840;SDS011;6487;48.626;12.486;2023-06-05T04:43:08;7.10;;;5.40;;
12840;SDS011;6487;48.626;12.486;2023-06-05T04:45:36;5.60;;;5.10;;
12840;SDS011;6487;48.626;12.486;2023-06-05T04:48:05;5.87;;;5.37;;
12840;SDS011;6487;48.626;12.486;2023-06-05T04:50:36;6.17;;;5.57;;
12840;SDS011;6487;48.626;12.486;2023-06-05T04:53:05;8.03;;;5.93;;
12840;SDS011;6487;48.626;12.486;2023-06-05T04:55:35;7.13;;;5.60;;
12840;SDS011;6487;48.626;12.486;2023-06-05T04:58:03;6.07;;;5.47;;
12840;SDS011;6487;48.626;12.486;2023-06-05T05:00:32;6.03;;;5.43;;
12840;SDS011;6487;48.626;12.486;2023-06-05T05:03:01;6.63;;;6.03;;
12840;SDS011;6487;48.626;12.486;2023-06-05T05:05:30;7.30;;;6.40;;
12840;SDS011;6487;48.626;12.486;2023-06-05T05:07:58;6.80;;;6.20;;
12840;SDS011;6487;48.626;12.486;2023-06-05T05:10:27;9.87;;;6.10;;
12840;SDS011;6487;48.626;12.486;2023-06-05T05:12:57;6.60;;;5.73;;
12840;SDS011;6487;48.626;12.486;2023-06-05T05:15:27;9.60;;;6.90;;
12840;SDS011;6487;48.626;12.486;2023-06-05T05:17:56;7.30;;;6.43;;
12840;SDS011;6487;48.626;12.486;2023-06-05T05:20:24;6.53;;;5.90;;
12840;SDS011;6487;48.626;12.486;2023-06-05T05:22:53;6.07;;;5.57;;
12840;SDS011;6487;48.626;12.486;2023-06-05T05:25:22;7.37;;;6.63;;
12840;SDS011;6487;48.626;12.486;2023-06-05T05:27:52;7.07;;;6.47;;
12840;SDS011;6487;48.626;12.486;2023-06-05T05:30:22;8.50;;;7.60;;
12840;SDS011;6487;48.626;12.486;2023-06-05T05:32:50;7.77;;;6.87;;
12840;SDS011;6487;48.626;12.486;2023-06-05T05:35:18;7.03;;;6.30;;
12840;SDS011;6487;48.626;12.486;2023-06-05T05:37:47;7.57;;;6.50;;
12840;SDS011;6487;48.626;12.486;2023-06-05T05:40:15;8.97;;;6.43;;
12840;SDS011;6487;48.626;12.486;2023-06-05T05:42:44;9.73;;;6.53;;
12840;SDS011;6487;48.626;12.486;2023-06-05T05:45:12;9.03;;;6.53;;
12840;SDS011;6487;48.626;12.486;2023-06-05T05:47:42;7.70;;;6.90;;
12840;SDS011;6487;48.626;12.486;2023-06-05T05:50:10;8.23;;;6.40;;
12840;SDS011;6487;48.626;12.486;2023-06-05T05:52:39;6.80;;;6.10;;
12840;SDS011;6487;48.626;12.486;2023-06-05T05:55:09;6.73;;;6.13;;
12840;SDS011;6487;48.626;12.486;2023-06-05T05:57:39;7.27;;;5.90;;
12840;SDS011;6487;48.626;12.486;2023-06-05T06:00:08;6.50;;;5.90;;
12840;SDS011;6487;48.626;12.486;2023-06-05T06:02:39;8.13;;;7.03;;
12840;SDS011;6487;48.626;12.486;2023-06-05T06:05:09;8.40;;;6.60;;
12840;SDS011;6487;48.626;12.486;2023-06-05T06:07:38;7.13;;;5.77;;
12840;SDS011;6487;48.626;12.486;2023-06-05T06:10:09;9.07;;;5.87;;
12840;SDS011;6487;48.626;12.486;2023-06-05T06:12:41;7.73;;;6.60;;
12840;SDS011;6487;48.626;12.486;2023-06-05T06:15:13;6.83;;;6.13;;
12840;SDS011;6487;48.626;12.486;2023-06-05T06:17:41;6.80;;;6.10;;
12840;SDS011;6487;48.626;12.486;2023-06-05T06:20:11;6.37;;;5.77;;
12840;SDS011;6487;48.626;12.486;2023-06-05T06:22:42;9.23;;;6.10;;
12840;SDS011;6487;48.626;12.486;2023-06-05T06:25:11;6.37;;;5.87;;
12840;SDS011;6487;48.626;12.486;2023-06-05T06:27:41;6.67;;;5.77;;
12840;SDS011;6487;48.626;12.486;2023-06-05T06:30:10;6.80;;;6.03;;
12840;SDS011;6487;48.626;12.486;2023-06-05T06:32:38;5.60;;;5.10;;
12840;SDS011;6487;48.626;12.486;2023-06-05T06:35:07;9.10;;;6.10;;
12840;SDS011;6487;48.626;12.486;2023-06-05T06:37:37;6.10;;;5.50;;
12840;SDS011;6487;48.626;12.486;2023-06-05T06:40:06;6.80;;;5.37;;
12840;SDS011;6487;48.626;12.486;2023-06-05T06:42:37;6.77;;;5.90;;
12840;SDS011;6487;48.626;12.486;2023-06-05T06:45:06;7.20;;;6.47;;
12840;SDS011;6487;48.626;12.486;2023-06-05T06:47:35;7.27;;;5.20;;
12840;SDS011;6487;48.626;12.486;2023-06-05T06:50:04;7.37;;;6.00;;
12840;SDS011;6487;48.626;12.486;2023-06-05T06:52:38;7.63;;;5.40;;
12840;SDS011;6487;48.626;12.486;2023-06-05T06:55:07;8.67;;;6.73;;
12840;SDS011;6487;48.626;12.486;2023-06-05T06:57:37;7.03;;;5.63;;
12840;SDS011;6487;48.626;12.486;2023-06-05T07:00:06;6.70;;;6.10;;
12840;SDS011;6487;48.626;12.486;2023-06-05T07:02:39;6.80;;;5.30;;
12840;SDS011;6487;48.626;12.486;2023-06-05T07:05:08;6.70;;;6.10;;
12840;SDS011;6487;48.626;12.486;2023-06-05T07:07:36;6.00;;;5.47;;
12840;SDS011;6487;48.626;12.486;2023-06-05T07:10:06;7.50;;;6.03;;
12840;SDS011;6487;48.626;12.486;2023-06-05T07:12:35;6.63;;;5.37;;
12840;SDS011;6487;48.626;12.486;2023-06-05T07:15:04;6.80;;;6.20;;
12840;SDS011;6487;48.626;12.486;2023-06-05T07:17:34;6.97;;;5.93;;
12840;SDS011;6487;48.626;12.486;2023-06-05T07:20:03;7.77;;;5.47;;
12840;SDS011;6487;48.626;12.486;2023-06-05T07:22:32;7.83;;;5.30;;
12840;SDS011;6487;48.626;12.486;2023-06-05T07:25:02;4.80;;;4.40;;
12840;SDS011;6487;48.626;12.486;2023-06-05T07:27:32;4.70;;;4.30;;
12840;SDS011;6487;48.626;12.486;2023-06-05T07:30:00;5.10;;;4.60;;
12840;SDS011;6487;48.626;12.486;2023-06-05T07:32:28;5.93;;;5.33;;
12840;SDS011;6487;48.626;12.486;2023-06-05T07:34:57;6.13;;;4.90;;
12840;SDS011;6487;48.626;12.486;2023-06-05T07:37:37;7.70;;;4.87;;
12840;SDS011;6487;48.626;12.486;2023-06-05T07:40:08;8.27;;;4.63;;
12840;SDS011;6487;48.626;12.486;2023-06-05T07:42:37;5.20;;;4.77;;
12840;SDS011;6487;48.626;12.486;2023-06-05T07:45:06;5.37;;;4.70;;
12840;SDS011;6487;48.626;12.486;2023-06-05T07:47:36;6.40;;;5.17;;
12840;SDS011;6487;48.626;12.486;2023-06-05T07:50:05;5.23;;;4.73;;
12840;SDS011;6487;48.626;12.486;2023-06-05T07:52:35;6.43;;;4.37;;
12840;SDS011;6487;48.626;12.486;2023-06-05T07:55:08;5.37;;;4.87;;
12840;SDS011;6487;48.626;12.486;2023-06-05T07:57:37;5.00;;;4.60;;
12840;SDS011;6487;48.626;12.486;2023-06-05T08:00:06;6.83;;;4.50;;
12840;SDS011;6487;48.626;12.486;2023-06-05T08:02:37;5.80;;;4.73;;
12840;SDS011;6487;48.626;12.486;2023-06-05T08:05:07;5.63;;;5.03;;
12840;SDS011;6487;48.626;12.486;2023-06-05T08:07:36;4.40;;;4.00;;
12840;SDS011;6487;48.626;12.486;2023-06-05T08:10:06;5.20;;;4.13;;
12840;SDS011;6487;48.626;12.486;2023-06-05T08:12:40;4.93;;;4.00;;
12840;SDS011;6487;48.626;12.486;2023-06-05T08:15:11;4.60;;;4.20;;
12840;SDS011;6487;48.626;12.486;2023-06-05T08:17:39;4.67;;;3.37;;
12840;SDS011;6487;48.626;12.486;2023-06-05T08:20:08;3.90;;;3.40;;
12840;SDS011;6487;48.626;12.486;2023-06-05T08:22:38;4.40;;;4.00;;
12840;SDS011;6487;48.626;12.486;2023-06-05T08:25:07;6.00;;;4.00;;
12840;SDS011;6487;48.626;12.486;2023-06-05T08:27:37;4.10;;;3.57;;
12840;SDS011;6487;48.626;12.486;2023-06-05T08:30:06;4.30;;;3.87;;
12840;SDS011;6487;48.626;12.486;2023-06-05T08:32:38;4.20;;;3.70;;
12840;SDS011;6487;48.626;12.486;2023-06-05T08:35:06;5.03;;;4.10;;
12840;SDS011;6487;48.626;12.486;2023-06-05T08:37:35;4.40;;;3.73;;
12840;SDS011;6487;48.626;12.486;2023-06-05T08:40:07;3.87;;;3.57;;
12840;SDS011;6487;48.626;12.486;2023-06-05T08:42:38;3.80;;;3.50;;
12840;SDS011;6487;48.626;12.486;2023-06-05T08:45:07;3.83;;;3.53;;
12840;SDS011;6487;48.626;12.486;2023-06-05T08:47:37;4.37;;;3.33;;
12840;SDS011;6487;48.626;12.486;2023-06-05T08:50:07;4.07;;;3.77;;
12840;SDS011;6487;48.626;12.486;2023-06-05T08:52:37;4.27;;;3.87;;
12840;SDS011;6487;48.626;12.486;2023-06-05T08:55:07;4.93;;;3.97;;
12840;SDS011;6487;48.626;12.486;2023-06-05T08:57:38;4.70;;;3.33;;
12840;SDS011;6487;48.626;12.486;2023-06-05T09:00:08;4.20;;;3.80;;
12840;SDS011;6487;48.626;12.486;2023-06-05T09:02:39;5.20;;;4.80;;
12840;SDS011;6487;48.626;12.486;2023-06-05T09:05:10;5.07;;;4.17;;
12840;SDS011;6487;48.626;12.486;2023-06-05T09:07:39;4.50;;;4.10;;
12840;SDS011;6487;48.626;12.486;2023-06-05T09:10:22;7.00;;;4.10;;
12840;SDS011;6487;48.626;12.486;2023-06-05T09:12:53;4.33;;;3.93;;
12840;SDS011;6487;48.626;12.486;2023-06-05T09:15:23;4.10;;;3.70;;
12840;SDS011;6487;48.626;12.486;2023-06-05T09:18:03;4.80;;;4.40;;
12840;SDS011;6487;48.626;12.486;2023-06-05T09:20:38;4.57;;;4.27;;
12840;SDS011;6487;48.626;12.486;2023-06-05T09:23:21;5.30;;;4.60;;
12840;SDS011;6487;48.626;12.486;2023-06-05T09:25:56;4.63;;;4.20;;
12840;SDS011;6487;48.626;12.486;2023-06-05T09:28:26;4.57;;;4.17;;
12840;SDS011;6487;48.626;12.486;2023-06-05T09:30:55;5.27;;;4.77;;
12840;SDS011;6487;48.626;12.486;2023-06-05T09:33:26;5.37;;;4.73;;
12840;SDS011;6487;48.626;12.486;2023-06-05T09:36:03;4.80;;;4.40;;
12840;SDS011;6487;48.626;12.486;2023-06-05T09:38:34;6.87;;;5.10;;
12840;SDS011;6487;48.626;12.486;2023-06-05T09:41:08;7.47;;;4.87;;
12840;SDS011;6487;48.626;12.486;2023-06-05T09:43:40;5.40;;;4.90;;
12840;SDS011;6487;48.626;12.486;2023-06-05T09:46:09;5.60;;;4.30;;
12840;SDS011;6487;48.626;12.486;2023-06-05T09:48:40;5.97;;;4.03;;
12840;SDS011;6487;48.626;12.486;2023-06-05T09:51:11;4.07;;;3.73;;
12840;SDS011;6487;48.626;12.486;2023-06-05T09:53:41;4.33;;;4.03;;
12840;SDS011;6487;48.626;12.486;2023-06-05T09:56:13;4.93;;;3.90;;
12840;SDS011;6487;48.626;12.486;2023-06-05T09:58:47;5.47;;;3.50;;
12840;SDS011;6487;48.626;12.486;2023-06-05T10:01:18;3.97;;;3.30;;
12840;SDS011;6487;48.626;12.486;2023-06-05T10:03:51;4.60;;;3.77;;
12840;SDS011;6487;48.626;12.486;2023-06-05T10:06:27;3.53;;;3.23;;
12840;SDS011;6487;48.626;12.486;2023-06-05T10:08:56;4.07;;;3.60;;
12840;SDS011;6487;48.626;12.486;2023-06-05T10:11:27;3.83;;;3.47;;
12840;SDS011;6487;48.626;12.486;2023-06-05T10:13:56;3.73;;;3.30;;
12840;SDS011;6487;48.626;12.486;2023-06-05T10:16:26;4.40;;;3.17;;
12840;SDS011;6487;48.626;12.486;2023-06-05T10:18:56;3.87;;;3.57;;
12840;SDS011;6487;48.626;12.486;2023-06-05T10:21:25;4.00;;;3.60;;
12840;SDS011;6487;48.626;12.486;2023-06-05T10:23:55;3.97;;;3.67;;
12840;SDS011;6487;48.626;12.486;2023-06-05T10:26:44;3.80;;;3.50;;
12840;SDS011;6487;48.626;12.486;2023-06-05T10:33:21;3.30;;;3.10;;
12840;SDS011;6487;48.626;12.486;2023-06-05T10:36:14;5.13;;;3.63;;
12840;SDS011;6487;48.626;12.486;2023-06-05T10:39:07;4.00;;;3.63;;
12840;SDS011;6487;48.626;12.486;2023-06-05T10:41:37;3.70;;;3.40;;
12840;SDS011;6487;48.626;12.486;2023-06-05T10:44:07;3.90;;;3.20;;
12840;SDS011;6487;48.626;12.486;2023-06-05T10:46:36;3.30;;;3.00;;
12840;SDS011;6487;48.626;12.486;2023-06-05T10:49:05;3.80;;;3.50;;
12840;SDS011;6487;48.626;12.486;2023-06-05T10:51:44;3.90;;;3.57;;
12840;SDS011;6487;48.626;12.486;2023-06-05T10:54:53;3.73;;;3.43;;
12840;SDS011;6487;48.626;12.486;2023-06-05T10:57:22;4.30;;;3.90;;
12840;SDS011;6487;48.626;12.486;2023-06-05T11:00:04;3.83;;;3.43;;
12840;SDS011;6487;48.626;12.486;2023-06-05T11:02:44;6.43;;;3.60;;
12840;SDS011;6487;48.626;12.486;2023-06-05T11:05:14;4.50;;;3.93;;
12840;SDS011;6487;48.626;12.486;2023-06-05T11:07:43;3.40;;;3.10;;
12840;SDS011;6487;48.626;12.486;2023-06-05T11:10:13;3.43;;;3.13;;
12840;SDS011;6487;48.626;12.486;2023-06-05T11:13:00;3.50;;;3.20;;
12840;SDS011;6487;48.626;12.486;2023-06-05T11:18:26;3.50;;;3.10;;
12840;SDS011;6487;48.626;12.486;2023-06-05T11:21:02;3.13;;;2.93;;
12840;SDS011;6487;48.626;12.486;2023-06-05T11:23:31;3.40;;;3.10;;
12840;SDS011;6487;48.626;12.486;2023-06-05T11:29:15;3.13;;;2.90;;
12840;SDS011;6487;48.626;12.486;2023-06-05T11:31:45;4.00;;;3.00;;
12840;SDS011;6487;48.626;12.486;2023-06-05T11:34:14;3.50;;;2.73;;
12840;SDS011;6487;48.626;12.486;2023-06-05T11:36:43;4.13;;;2.90;;
12840;SDS011;6487;48.626;12.486;2023-06-05T11:39:12;3.17;;;2.80;;
12840;SDS011;6487;48.626;12.486;2023-06-05T11:41:44;2.70;;;2.50;;
12840;SDS011;6487;48.626;12.486;2023-06-05T11:44:14;3.30;;;2.97;;
12840;SDS011;6487;48.626;12.486;2023-06-05T11:46:43;3.03;;;2.83;;
12840;SDS011;6487;48.626;12.486;2023-06-05T11:49:22;2.60;;;2.40;;
12840;SDS011;6487;48.626;12.486;2023-06-05T11:51:52;2.67;;;2.43;;
12840;SDS011;6487;48.626;12.486;2023-06-05T11:54:25;3.10;;;2.80;;
12840;SDS011;6487;48.626;12.486;2023-06-05T11:56:58;2.87;;;2.40;;
12840;SDS011;6487;48.626;12.486;2023-06-05T11:59:35;2.10;;;2.00;;
12840;SDS011;6487;48.626;12.486;2023-06-05T12:02:05;2.63;;;2.40;;
12840;SDS011;6487;48.626;12.486;2023-06-05T12:04:34;2.30;;;2.10;;
12840;SDS011;6487;48.626;12.486;2023-06-05T12:07:04;3.33;;;2.77;;
12840;SDS011;6487;48.626;12.486;2023-06-05T12:09:33;6.37;;;2.90;;
12840;SDS011;6487;48.626;12.486;2023-06-05T12:12:04;3.40;;;2.50;;
12840;SDS011;6487;48.626;12.486;2023-06-05T12:14:34;2.80;;;2.60;;
12840;SDS011;6487;48.626;12.486;2023-06-05T12:17:11;3.10;;;2.67;;
12840;SDS011;6487;48.626;12.486;2023-06-05T12:19:40;2.80;;;2.60;;
12840;SDS011;6487;48.626;12.486;2023-06-05T12:22:08;2.93;;;2.73;;
12840;SDS011;6487;48.626;12.486;2023-06-05T12:24:37;3.00;;;2.80;;
12840;SDS011;6487;48.626;12.486;2023-06-05T12:27:05;2.90;;;2.70;;
12840;SDS011;6487;48.626;12.486;2023-06-05T12:29:35;3.40;;;2.80;;
12840;SDS011;6487;48.626;12.486;2023-06-05T12:32:20;3.10;;;2.90;;
12840;SDS011;6487;48.626;12.486;2023-06-05T12:34:50;2.70;;;2.50;;
12840;SDS011;6487;48.626;12.486;2023-06-05T12:37:29;4.27;;;2.97;;
12840;SDS011;6487;48.626;12.486;2023-06-05T12:40:04;3.27;;;2.97;;
12840;SDS011;6487;48.626;12.486;2023-06-05T12:42:36;2.60;;;2.40;;
12840;SDS011;6487;48.626;12.486;2023-06-05T12:45:09;2.70;;;2.37;;
12840;SDS011;6487;48.626;12.486;2023-06-05T12:47:40;3.23;;;3.03;;
12840;SDS011;6487;48.626;12.486;2023-06-05T12:50:10;3.80;;;3.53;;
12840;SDS011;6487;48.626;12.486;2023-06-05T12:52:40;4.00;;;3.10;;
12840;SDS011;6487;48.626;12.486;2023-06-05T12:55:09;3.57;;;3.27;;
12840;SDS011;6487;48.626;12.486;2023-06-05T12:57:37;3.40;;;3.10;;
12840;SDS011;6487;48.626;12.486;2023-06-05T13:00:07;3.37;;;3.10;;
12840;SDS011;6487;48.626;12.486;2023-06-05T13:02:41;4.10;;;3.80;;
12840;SDS011;6487;48.626;12.486;2023-06-05T13:05:13;5.33;;;3.67;;
12840;SDS011;6487;48.626;12.486;2023-06-05T13:07:44;3.57;;;3.27;;
12840;SDS011;6487;48.626;12.486;2023-06-05T13:10:12;3.80;;;3.50;;
12840;SDS011;6487;48.626;12.486;2023-06-05T13:12:41;4.10;;;3.77;;
12840;SDS011;6487;48.626;12.486;2023-06-05T13:15:10;3.87;;;3.57;;
12840;SDS011;6487;48.626;12.486;2023-06-05T13:17:39;4.23;;;3.83;;
12840;SDS011;6487;48.626;12.486;2023-06-05T13:20:09;4.17;;;3.63;;
12840;SDS011;6487;48.626;12.486;2023-06-05T13:22:39;3.90;;;3.60;;
12840;SDS011;6487;48.626;12.486;2023-06-05T13:25:08;4.27;;;3.83;;
12840;SDS011;6487;48.626;12.486;2023-06-05T13:27:45;5.23;;;4.10;;
12840;SDS011;6487;48.626;12.486;2023-06-05T13:30:13;5.40;;;4.10;;
12840;SDS011;6487;48.626;12.486;2023-06-05T13:32:41;6.00;;;5.03;;
12840;SDS011;6487;48.626;12.486;2023-06-05T13:35:12;6.93;;;4.37;;
12840;SDS011;6487;48.626;12.486;2023-06-05T13:37:43;4.27;;;3.97;;
12840;SDS011;6487;48.626;12.486;2023-06-05T13:40:12;4.47;;;4.17;;
12840;SDS011;6487;48.626;12.486;2023-06-05T13:42:41;4.50;;;4.20;;
12840;SDS011;6487;48.626;12.486;2023-06-05T13:45:09;5.10;;;4.70;;
12840;SDS011;6487;48.626;12.486;2023-06-05T13:47:38;8.50;;;4.47;;
12840;SDS011;6487;48.626;12.486;2023-06-05T13:50:07;4.67;;;4.27;;
12840;SDS011;6487;48.626;12.486;2023-06-05T13:52:37;5.50;;;5.10;;
12840;SDS011;6487;48.626;12.486;2023-06-05T13:55:06;5.60;;;5.00;;
12840;SDS011;6487;48.626;12.486;2023-06-05T13:57:35;5.20;;;4.67;;
12840;SDS011;6487;48.626;12.486;2023-06-05T14:00:04;5.60;;;5.10;;
12840;SDS011;6487;48.626;12.486;2023-06-05T14:02:34;5.80;;;5.30;;
12840;SDS011;6487;48.626;12.486;2023-06-05T14:05:03;5.93;;;5.43;;
12840;SDS011;6487;48.626;12.486;2023-06-05T14:07:39;5.27;;;4.87;;
12840;SDS011;6487;48.626;12.486;2023-06-05T14:10:16;6.00;;;5.50;;
12840;SDS011;6487;48.626;12.486;2023-06-05T14:12:48;5.77;;;5.37;;
12840;SDS011;6487;48.626;12.486;2023-06-05T14:15:18;5.53;;;5.03;;
12840;SDS011;6487;48.626;12.486;2023-06-05T14:17:49;6.00;;;5.40;;
12840;SDS011;6487;48.626;12.486;2023-06-05T14:20:18;5.90;;;5.50;;
12840;SDS011;6487;48.626;12.486;2023-06-05T14:22:48;6.37;;;5.87;;
12840;SDS011;6487;48.626;12.486;2023-06-05T14:25:17;6.63;;;6.03;;
12840;SDS011;6487;48.626;12.486;2023-06-05T14:27:46;6.40;;;5.90;;
12840;SDS011;6487;48.626;12.486;2023-06-05T14:30:14;7.43;;;6.73;;
12840;SDS011;6487;48.626;12.486;2023-06-05T14:32:43;6.50;;;5.90;;
12840;SDS011;6487;48.626;12.486;2023-06-05T14:35:11;6.10;;;5.67;;
12840;SDS011;6487;48.626;12.486;2023-06-05T14:37:40;6.30;;;5.80;;
12840;SDS011;6487;48.626;12.486;2023-06-05T14:40:11;6.60;;;6.10;;
12840;SDS011;6487;48.626;12.486;2023-06-05T14:42:40;6.40;;;5.67;;
12840;SDS011;6487;48.626;12.486;2023-06-05T14:45:11;6.43;;;5.80;;
12840;SDS011;6487;48.626;12.486;2023-06-05T14:47:42;6.97;;;6.30;;
12840;SDS011;6487;48.626;12.486;2023-06-05T14:50:13;6.10;;;5.60;;
12840;SDS011;6487;48.626;12.486;2023-06-05T14:52:41;6.83;;;6.33;;
12840;SDS011;6487;48.626;12.486;2023-06-05T14:55:11;6.17;;;5.67;;
12840;SDS011;6487;48.626;12.486;2023-06-05T14:57:40;6.17;;;5.67;;
12840;SDS011;6487;48.626;12.486;2023-06-05T15:00:08;5.53;;;5.10;;
12840;SDS011;6487;48.626;12.486;2023-06-05T15:02:38;5.97;;;5.30;;
12840;SDS011;6487;48.626;12.486;2023-06-05T15:05:06;5.57;;;5.13;;
12840;SDS011;6487;48.626;12.486;2023-06-05T15:07:36;5.50;;;5.00;;
12840;SDS011;6487;48.626;12.486;2023-06-05T15:10:06;5.67;;;5.17;;
12840;SDS011;6487;48.626;12.486;2023-06-05T15:12:40;5.13;;;4.73;;
12840;SDS011;6487;48.626;12.486;2023-06-05T15:15:09;5.10;;;4.70;;
12840;SDS011;6487;48.626;12.486;2023-06-05T15:17:40;4.30;;;4.00;;
12840;SDS011;6487;48.626;12.486;2023-06-05T15:20:09;4.53;;;4.17;;